createdAt,value
2022-10-04T00:00:13.601Z,99676.03
2022-10-04T00:02:47.090Z,99674.28
2022-10-04T00:05:18.693Z,99680.34
2022-10-04T00:07:51.352Z,99674.31
2022-10-04T00:10:29.266Z,99685.59
2022-10-04T00:13:03.013Z,99683.84
2022-10-04T00:15:37.450Z,99681.25
2022-10-04T00:18:07.183Z,99683.84
2022-10-04T00:21:01.835Z,99682.94
2022-10-04T00:23:42.537Z,99682.03
2022-10-04T00:26:35.311Z,99684.63
2022-10-04T00:29:32.977Z,99688.13
2022-10-04T00:32:11.989Z,99687.22
2022-10-04T00:34:47.548Z,99679.41
2022-10-04T00:37:15.569Z,99677.66
2022-10-04T00:39:43.786Z,99686.38
2022-10-04T00:42:35.929Z,99682.06
2022-10-04T00:45:07.661Z,99690.72
2022-10-04T00:47:46.453Z,99684.59
2022-10-04T00:50:16.155Z,99670.75
2022-10-04T00:52:44.332Z,99678.59
2022-10-04T00:55:19.163Z,99674.22
2022-10-04T00:57:48.476Z,99664.59
2022-10-04T01:00:16.911Z,99668.94
2022-10-04T01:02:44.407Z,99663.72
2022-10-04T01:05:16.452Z,99664.53
2022-10-04T01:08:03.419Z,99671.38
2022-10-04T01:10:46.042Z,99667.13
2022-10-04T01:13:12.767Z,99664.50
2022-10-04T01:15:51.093Z,99672.34
2022-10-04T01:18:20.655Z,99666.19
2022-10-04T01:20:54.662Z,99674.91
2022-10-04T01:23:44.491Z,99667.06
2022-10-04T01:26:34.062Z,99668.69
2022-10-04T01:29:17.692Z,99670.44
2022-10-04T01:31:49.182Z,99667.81
2022-10-04T01:34:17.631Z,99667.03
2022-10-04T01:36:46.285Z,99664.31
2022-10-04T01:39:14.005Z,99661.75
2022-10-04T01:42:06.834Z,99659.97
2022-10-04T01:44:39.899Z,99662.59
2022-10-04T01:47:10.086Z,99664.34
2022-10-04T01:49:38.607Z,99672.09
2022-10-04T01:52:18.455Z,99660.81
2022-10-04T01:54:55.798Z,99653.81
2022-10-04T01:57:41.805Z,99656.34
2022-10-04T02:00:13.563Z,99653.72
2022-10-04T02:02:52.253Z,99654.66
2022-10-04T02:05:29.977Z,99658.94
2022-10-04T02:07:58.574Z,99658.13
2022-10-04T02:10:26.416Z,99663.31
2022-10-04T02:12:54.955Z,99668.44
2022-10-04T02:15:23.374Z,99669.28
2022-10-04T02:17:50.519Z,99654.56
2022-10-04T02:20:19.528Z,99651.97
2022-10-04T02:22:49.224Z,99661.47
2022-10-04T02:25:18.425Z,99663.19
2022-10-04T02:27:45.400Z,99663.19
2022-10-04T02:30:12.766Z,99663.16
2022-10-04T02:33:00.595Z,99664.88
2022-10-04T02:35:34.352Z,99669.25
2022-10-04T02:38:04.076Z,99666.69
2022-10-04T02:40:32.822Z,99669.22
2022-10-04T02:43:32.095Z,99666.53
2022-10-04T02:46:02.764Z,99672.75
2022-10-04T02:48:32.235Z,99670.00
2022-10-04T02:51:06.875Z,99684.88
2022-10-04T02:53:46.394Z,99684.06
2022-10-04T02:56:13.716Z,99680.53
2022-10-04T02:58:41.114Z,99679.63
2022-10-04T03:01:07.935Z,99677.94
2022-10-04T03:03:37.792Z,99679.66
2022-10-04T03:06:04.746Z,99684.88
2022-10-04T03:08:34.685Z,99684.84
2022-10-04T03:11:03.123Z,99685.69
2022-10-04T03:13:31.191Z,99684.03
2022-10-04T03:15:58.114Z,99688.28
2022-10-04T03:18:24.869Z,99688.31
2022-10-04T03:20:52.529Z,99683.00
2022-10-04T03:23:20.084Z,99683.84
2022-10-04T03:25:52.334Z,99687.41
2022-10-04T03:28:19.462Z,99685.59
2022-10-04T03:30:53.421Z,99675.19
2022-10-04T03:33:24.193Z,99676.91
2022-10-04T03:35:53.571Z,99684.78
2022-10-04T03:38:26.469Z,99686.47
2022-10-04T03:40:57.912Z,99695.13
2022-10-04T03:43:27.471Z,99699.50
2022-10-04T03:45:55.278Z,99692.56
2022-10-04T03:48:30.532Z,99685.63
2022-10-04T03:50:58.412Z,99687.34
2022-10-04T03:53:28.327Z,99693.38
2022-10-04T03:55:55.093Z,99697.72
2022-10-04T03:58:22.844Z,99700.25
2022-10-04T04:00:58.820Z,99696.72
2022-10-04T04:03:26.882Z,99699.31
2022-10-04T04:05:54.963Z,99700.22
2022-10-04T04:08:27.495Z,99702.81
2022-10-04T04:10:58.780Z,99705.41
2022-10-04T04:13:38.922Z,99720.13
2022-10-04T04:16:06.221Z,99715.81
2022-10-04T04:18:34.395Z,99720.94
2022-10-04T04:21:03.071Z,99717.53
2022-10-04T04:23:38.052Z,99717.38
2022-10-04T04:26:19.931Z,99719.22
2022-10-04T04:28:49.523Z,99722.69
2022-10-04T04:31:21.790Z,99721.88
2022-10-04T04:34:00.814Z,99737.47
2022-10-04T04:36:28.766Z,99731.31
2022-10-04T04:39:25.187Z,99733.06
2022-10-04T04:41:52.078Z,99741.81
2022-10-04T04:44:19.667Z,99742.53
2022-10-04T04:46:47.227Z,99742.56
2022-10-04T04:49:17.795Z,99751.19
2022-10-04T04:51:51.584Z,99753.84
2022-10-04T04:54:20.307Z,99760.78
2022-10-04T04:56:48.763Z,99760.00
2022-10-04T04:59:15.906Z,99763.41
2022-10-04T05:01:43.989Z,99765.09
2022-10-04T05:04:13.695Z,99767.78
2022-10-04T05:06:42.026Z,99771.28
2022-10-04T05:09:27.434Z,99765.25
2022-10-04T05:11:58.173Z,99774.97
2022-10-04T05:14:24.823Z,99777.47
2022-10-04T05:16:53.054Z,99775.84
2022-10-04T05:19:22.840Z,99785.34
2022-10-04T05:21:50.616Z,99784.56
2022-10-04T05:24:26.432Z,99778.44
2022-10-04T05:26:55.449Z,99769.91
2022-10-04T05:29:24.622Z,99780.34
2022-10-04T05:32:03.620Z,99789.06
2022-10-04T05:34:32.010Z,99779.59
2022-10-04T05:37:10.881Z,99781.44
2022-10-04T05:39:40.519Z,99783.19
2022-10-04T05:42:07.941Z,99786.75
2022-10-04T05:44:46.200Z,99793.72
2022-10-04T05:47:14.564Z,99792.88
2022-10-04T05:49:46.690Z,99802.47
2022-10-04T05:52:15.045Z,99807.75
2022-10-04T05:54:41.766Z,99815.56
2022-10-04T05:57:19.770Z,99813.81
2022-10-04T06:00:07.327Z,99816.22
2022-10-04T06:02:59.658Z,99823.28
2022-10-04T06:05:29.498Z,99832.84
2022-10-04T06:07:59.518Z,99833.81
2022-10-04T06:10:44.851Z,99835.53
2022-10-04T06:13:23.795Z,99833.09
2022-10-04T06:15:56.591Z,99838.34
2022-10-04T06:18:33.214Z,99839.28
2022-10-04T06:21:18.705Z,99834.19
2022-10-04T06:23:51.189Z,99844.69
2022-10-04T06:26:44.334Z,99829.06
2022-10-04T06:29:14.452Z,99842.97
2022-10-04T06:31:44.989Z,99846.47
2022-10-04T06:34:35.961Z,99844.72
2022-10-04T06:37:02.831Z,99849.16
2022-10-04T06:39:58.812Z,99858.78
2022-10-04T06:42:34.882Z,99858.03
2022-10-04T06:45:10.719Z,99861.56
2022-10-04T06:47:52.641Z,99852.03
2022-10-04T06:50:25.740Z,99851.19
2022-10-04T06:52:55.110Z,99855.50
2022-10-04T06:55:27.816Z,99856.41
2022-10-04T06:58:09.830Z,99853.75
2022-10-04T07:00:58.534Z,99863.41
2022-10-04T07:03:34.265Z,99857.34
2022-10-04T07:06:01.594Z,99860.91
2022-10-04T07:08:37.233Z,99863.69
2022-10-04T07:11:24.929Z,99861.03
2022-10-04T07:14:04.010Z,99857.59
2022-10-04T07:17:00.164Z,99866.44
2022-10-04T07:19:45.751Z,99870.84
2022-10-04T07:22:31.343Z,99865.63
2022-10-04T07:24:58.094Z,99868.41
2022-10-04T07:27:24.995Z,99865.78
2022-10-04T07:29:55.893Z,99864.91
2022-10-04T07:32:26.445Z,99870.09
2022-10-04T07:34:57.583Z,99881.41
2022-10-04T07:37:27.122Z,99876.19
2022-10-04T07:40:00.853Z,99877.94
2022-10-04T07:42:35.107Z,99881.41
2022-10-04T07:45:06.254Z,99883.16
2022-10-04T07:47:33.080Z,99875.38
2022-10-04T07:50:00.226Z,99881.50
2022-10-04T07:52:45.464Z,99881.44
2022-10-04T07:55:15.009Z,99878.88
2022-10-04T07:57:58.856Z,99878.78
2022-10-04T08:00:32.457Z,99883.94
2022-10-04T08:03:19.464Z,99885.78
2022-10-04T08:05:50.658Z,99882.31
2022-10-04T08:08:34.214Z,99891.06
2022-10-04T08:11:19.504Z,99887.63
2022-10-04T08:13:52.446Z,99884.13
2022-10-04T08:16:42.281Z,99891.09
2022-10-04T08:19:22.931Z,99891.97
2022-10-04T08:22:08.062Z,99893.69
2022-10-04T08:24:53.727Z,99898.00
2022-10-04T08:27:26.190Z,99899.75
2022-10-04T08:30:19.500Z,99903.22
2022-10-04T08:33:06.488Z,99899.72
2022-10-04T08:35:40.700Z,99899.53
2022-10-04T08:38:10.215Z,99905.59
2022-10-04T08:40:55.654Z,99900.41
2022-10-04T08:43:49.689Z,99902.25
2022-10-04T08:46:26.579Z,99903.16
2022-10-04T08:49:13.559Z,99899.22
2022-10-04T08:51:58.599Z,99897.31
2022-10-04T08:54:37.431Z,99891.00
2022-10-04T08:57:32.640Z,99897.03
2022-10-04T09:00:18.128Z,99893.84
2022-10-04T09:02:48.165Z,99897.75
2022-10-04T09:05:23.982Z,99898.97
2022-10-04T09:08:04.491Z,99901.81
2022-10-04T09:10:44.626Z,99896.97
2022-10-04T09:13:31.135Z,99901.91
2022-10-04T09:16:14.830Z,99907.19
2022-10-04T09:18:41.628Z,99904.72
2022-10-04T09:21:14.227Z,99902.38
2022-10-04T09:23:56.079Z,99913.19
2022-10-04T09:26:22.848Z,99908.59
2022-10-04T09:29:14.396Z,99909.50
2022-10-04T09:31:44.177Z,99902.72
2022-10-04T09:34:37.416Z,99917.41
2022-10-04T09:37:13.173Z,99908.22
2022-10-04T09:39:40.060Z,99912.78
2022-10-04T09:42:33.748Z,99911.56
2022-10-04T09:45:06.139Z,99907.66
2022-10-04T09:47:41.166Z,99916.59
2022-10-04T09:50:26.934Z,99907.81
2022-10-04T09:53:04.925Z,99910.47
2022-10-04T09:55:58.487Z,99900.69
2022-10-04T09:58:33.924Z,99899.47
2022-10-04T10:01:10.117Z,99904.94
2022-10-04T10:03:46.325Z,99908.25
2022-10-04T10:06:18.974Z,99897.16
2022-10-04T10:08:48.676Z,99892.22
2022-10-04T10:11:52.841Z,99903.41
2022-10-04T10:14:37.871Z,99893.50
2022-10-04T10:17:14.838Z,99889.72
2022-10-04T10:20:10.749Z,99895.75
2022-10-04T10:22:56.099Z,99884.69
2022-10-04T10:25:25.733Z,99896.31
2022-10-04T10:27:55.351Z,99891.53
2022-10-04T10:30:48.581Z,99898.47
2022-10-04T10:33:35.965Z,99895.41
2022-10-04T10:36:21.692Z,99889.81
2022-10-04T10:38:48.562Z,99886.28
2022-10-04T10:41:37.316Z,99888.44
2022-10-04T10:44:10.679Z,99894.81
2022-10-04T10:46:50.406Z,99894.69
2022-10-04T10:49:41.247Z,99888.66
2022-10-04T10:52:08.447Z,99886.03
2022-10-04T10:54:50.510Z,99896.56
2022-10-04T10:57:26.302Z,99877.03
2022-10-04T11:00:12.075Z,99880.69
2022-10-04T11:02:51.223Z,99881.34
2022-10-04T11:05:36.916Z,99883.53
2022-10-04T11:08:04.883Z,99886.78
2022-10-04T11:10:52.007Z,99883.91
2022-10-04T11:13:37.552Z,99880.31
2022-10-04T11:16:23.049Z,99877.75
2022-10-04T11:19:03.389Z,99886.53
2022-10-04T11:21:50.463Z,99886.31
2022-10-04T11:24:29.331Z,99893.53
2022-10-04T11:26:58.813Z,99897.97
2022-10-04T11:29:32.621Z,99893.94
2022-10-04T11:32:02.278Z,99887.09
2022-10-04T11:34:38.427Z,99892.66
2022-10-04T11:37:08.071Z,99887.50
2022-10-04T11:39:46.155Z,99880.69
2022-10-04T11:42:27.915Z,99889.56
2022-10-04T11:45:02.630Z,99884.91
2022-10-04T11:47:40.966Z,99889.00
2022-10-04T11:50:34.175Z,99881.63
2022-10-04T11:53:26.002Z,99891.38
2022-10-04T11:55:57.585Z,99890.53
2022-10-04T11:58:35.283Z,99887.06
2022-10-04T12:01:01.895Z,99888.75
2022-10-04T12:03:47.129Z,99881.66
2022-10-04T12:06:39.986Z,99882.53
2022-10-04T12:09:09.710Z,99878.00
2022-10-04T12:12:13.754Z,99878.94
2022-10-04T12:14:44.030Z,99875.50
2022-10-04T12:17:29.719Z,99877.34
2022-10-04T12:20:14.737Z,99871.25
2022-10-04T12:22:56.360Z,99865.78
2022-10-04T12:25:29.006Z,99866.66
2022-10-04T12:28:14.712Z,99870.25
2022-10-04T12:30:50.228Z,99868.63
2022-10-04T12:33:17.079Z,99859.06
2022-10-04T12:36:06.757Z,99866.94
2022-10-04T12:38:52.048Z,99872.31
2022-10-04T12:41:30.574Z,99865.28
2022-10-04T12:44:20.326Z,99869.59
2022-10-04T12:46:56.513Z,99864.41
2022-10-04T12:49:23.465Z,99861.00
2022-10-04T12:52:11.122Z,99862.72
2022-10-04T12:54:52.491Z,99864.00
2022-10-04T12:57:19.074Z,99860.41
2022-10-04T12:59:48.427Z,99866.41
2022-10-04T13:02:21.837Z,99861.06
2022-10-04T13:04:52.500Z,99866.13
2022-10-04T13:07:30.332Z,99862.47
2022-10-04T13:10:23.761Z,99857.91
2022-10-04T13:13:11.256Z,99863.97
2022-10-04T13:18:31.160Z,99872.56
2022-10-04T13:20:57.839Z,99873.44
2022-10-04T13:23:44.874Z,99868.19
2022-10-04T13:26:23.943Z,99863.47
2022-10-04T13:29:17.521Z,99863.72
2022-10-04T13:31:44.551Z,99865.28
2022-10-04T13:34:26.615Z,99864.47
2022-10-04T13:36:54.329Z,99868.09
2022-10-04T13:39:20.957Z,99869.09
2022-10-04T14:52:06.826Z,99911.16
2022-10-04T14:54:59.658Z,99913.78
2022-10-04T14:57:50.358Z,99917.25
2022-10-04T15:00:19.077Z,99913.75
2022-10-04T15:03:04.466Z,99911.13
2022-10-04T15:06:00.128Z,99919.84
2022-10-04T15:08:59.380Z,99925.00
2022-10-04T15:11:39.936Z,99915.41
2022-10-04T15:14:22.920Z,99917.13
2022-10-04T15:16:54.180Z,99916.22
2022-10-04T15:19:20.919Z,99921.47
2022-10-04T15:21:47.560Z,99921.47
2022-10-04T15:24:16.941Z,99923.22
2022-10-04T15:26:50.318Z,99917.16
2022-10-04T15:29:31.721Z,99925.84
2022-10-04T15:32:16.122Z,99929.25
2022-10-04T15:35:03.711Z,99934.47
2022-10-04T15:37:53.342Z,99946.63
2022-10-04T15:40:22.944Z,99944.88
2022-10-04T15:43:08.357Z,99952.59
2022-10-04T15:45:50.193Z,99961.31
2022-10-04T15:48:47.620Z,99966.53
2022-10-04T15:51:27.018Z,99981.22
2022-10-04T15:53:56.776Z,99979.38
2022-10-04T15:56:33.258Z,99995.72
2022-10-04T15:58:59.951Z,99992.75
2022-10-04T16:01:46.021Z,99968.47
2022-10-04T16:04:22.997Z,99968.56
2022-10-04T16:06:54.192Z,99970.19
2022-10-04T16:09:37.609Z,99976.31
2022-10-04T16:12:23.082Z,99985.91
2022-10-04T16:15:01.839Z,99986.69
2022-10-04T16:17:44.246Z,99977.91
2022-10-04T16:20:25.191Z,99975.22
2022-10-04T16:23:24.215Z,99969.06
2022-10-04T16:25:51.799Z,99970.78
2022-10-04T16:28:32.225Z,99977.75
2022-10-04T16:31:20.141Z,99982.19
2022-10-04T16:34:15.998Z,99979.50
2022-10-04T16:36:45.792Z,99979.50
2022-10-04T16:39:32.304Z,99991.69
2022-10-04T16:42:01.823Z,99989.88
2022-10-04T16:44:46.192Z,100000.31
2022-10-04T16:47:20.132Z,100008.91
2022-10-04T16:49:57.784Z,100008.91
2022-10-04T16:52:48.521Z,100015.88
2022-10-04T16:55:15.223Z,100004.91
2022-10-04T16:57:43.532Z,100016.19
2022-10-04T17:00:35.186Z,100016.94
2022-10-04T17:03:11.455Z,100018.34
2022-10-04T17:05:47.661Z,100027.75
2022-10-04T17:08:17.155Z,100025.88
2022-10-04T17:10:50.017Z,100019.69
2022-10-04T17:13:32.462Z,100024.84
2022-10-04T17:16:11.200Z,100020.31
2022-10-04T17:19:13.082Z,100020.16
2022-10-04T17:22:00.391Z,100027.97
2022-10-04T17:24:33.816Z,100028.97
2022-10-04T17:27:17.550Z,100023.81
2022-10-04T17:29:59.039Z,100033.34
2022-10-04T17:32:44.566Z,100031.66
2022-10-04T17:35:30.339Z,100032.47
2022-10-04T17:38:03.297Z,100035.94
2022-10-04T17:40:48.683Z,100042.63
2022-10-04T17:43:18.315Z,100041.75
2022-10-04T17:45:44.936Z,100043.53
2022-10-04T17:48:34.558Z,100040.84
2022-10-04T17:51:22.919Z,100040.16
2022-10-04T17:54:12.658Z,100048.91
2022-10-04T17:56:50.451Z,100054.91
2022-10-04T17:59:20.981Z,100058.38
2022-10-04T18:02:00.773Z,100046.16
2022-10-04T18:04:30.677Z,100057.34
2022-10-04T18:07:01.731Z,100061.69
2022-10-04T18:09:28.561Z,100072.03
2022-10-04T18:12:17.960Z,100071.13
2022-10-04T18:15:03.260Z,100065.81
2022-10-04T18:17:38.993Z,100077.13
2022-10-04T18:20:27.715Z,100077.88
2022-10-04T18:23:01.840Z,100083.81
2022-10-04T18:25:33.856Z,100078.47
2022-10-04T18:28:07.234Z,100090.59
2022-10-04T18:30:54.220Z,100087.00
2022-10-04T18:33:26.070Z,100087.00
2022-10-04T18:35:59.660Z,100090.50
2022-10-04T18:38:30.568Z,100093.97
2022-10-04T18:41:13.445Z,100096.41
2022-10-04T18:44:00.323Z,100097.16
2022-10-04T18:46:37.525Z,100106.72
2022-10-04T18:49:21.309Z,100106.66
2022-10-04T18:52:07.470Z,100102.13
2022-10-04T18:54:52.903Z,100101.16
2022-10-04T18:57:26.059Z,100108.00
2022-10-04T19:00:14.359Z,100109.56
2022-10-04T19:02:48.452Z,100107.81
2022-10-04T19:05:15.578Z,100108.72
2022-10-04T19:07:46.820Z,100109.56
2022-10-04T19:10:21.742Z,100118.41
2022-10-04T19:12:48.422Z,100125.28
2022-10-04T19:15:21.166Z,100116.59
2022-10-04T19:17:53.850Z,100122.63
2022-10-04T19:20:29.358Z,100122.63
2022-10-04T19:22:58.792Z,100121.91
2022-10-04T19:25:36.738Z,100121.72
2022-10-04T19:28:07.110Z,100129.66
2022-10-04T19:30:48.392Z,100123.47
2022-10-04T19:33:26.750Z,100125.97
2022-10-04T19:35:56.468Z,100117.97
2022-10-04T19:38:32.690Z,100122.53
2022-10-04T19:41:02.380Z,100131.78
2022-10-04T19:43:53.007Z,100123.28
2022-10-04T19:46:25.588Z,100135.38
2022-10-04T19:48:55.116Z,100132.78
2022-10-04T19:51:28.457Z,100138.88
2022-10-04T19:53:59.713Z,100140.41
2022-10-04T19:56:30.231Z,100140.44
2022-10-04T19:59:01.713Z,100140.28
2022-10-04T20:01:29.807Z,100152.50
2022-10-04T20:04:15.672Z,100148.19
2022-10-04T20:06:49.988Z,100151.28
2022-10-04T20:09:31.857Z,100157.59
2022-10-04T20:11:58.696Z,100157.59
2022-10-04T20:14:28.412Z,100155.09
2022-10-04T20:16:55.195Z,100159.34
2022-10-04T20:19:22.790Z,100163.69
2022-10-04T20:21:49.723Z,100161.69
2022-10-04T20:24:17.610Z,100166.03
2022-10-04T20:26:56.779Z,100167.69
2022-10-04T20:29:38.840Z,100171.81
2022-10-04T20:32:07.092Z,100170.13
2022-10-04T20:34:34.234Z,100172.59
2022-10-04T20:37:01.842Z,100167.34
2022-10-04T20:39:40.713Z,100175.16
2022-10-04T20:42:20.268Z,100177.69
2022-10-04T20:44:46.934Z,100181.06
2022-10-04T20:47:32.572Z,100183.75
2022-10-04T20:50:17.981Z,100183.53
2022-10-04T20:52:46.638Z,100187.88
2022-10-04T20:55:41.267Z,100194.97
2022-10-04T20:58:35.757Z,100192.94
2022-10-04T21:08:10.854Z,100194.53
2022-10-04T21:11:21.445Z,100197.31
2022-10-04T21:17:37.409Z,100199.63
2022-10-04T21:20:05.125Z,100205.66
2022-10-04T21:22:33.799Z,100202.22
2022-10-04T21:25:19.270Z,100214.31
2022-10-04T21:28:12.524Z,100207.16
2022-10-04T21:30:56.218Z,100219.13
2022-10-04T21:33:31.535Z,100220.72
2022-10-04T21:36:24.138Z,100211.53
2022-10-04T21:39:13.258Z,100216.66
2022-10-04T21:41:42.141Z,100222.97
2022-10-04T21:44:18.697Z,100228.16
2022-10-04T21:47:24.217Z,100227.31
2022-10-04T21:49:54.056Z,100222.97
2022-10-04T21:52:27.134Z,100224.72
2022-10-04T21:54:58.847Z,100225.50
2022-10-04T22:04:25.994Z,100223.66
2022-10-04T22:07:04.845Z,100232.13
2022-10-04T22:09:37.823Z,100231.19
2022-10-04T22:15:46.395Z,100239.47
2022-10-04T22:18:27.352Z,100237.63
2022-10-04T22:21:08.612Z,100237.53
2022-10-04T22:24:02.243Z,100245.31
2022-10-04T22:26:51.931Z,100249.59
2022-10-04T22:29:36.031Z,100248.59
2022-10-04T22:32:45.217Z,100248.81
2022-10-04T22:42:14.824Z,100243.00
2022-10-04T22:44:51.582Z,100248.31
2022-10-04T22:47:33.623Z,100256.81
2022-10-04T22:50:27.894Z,100254.06
2022-10-04T22:52:55.033Z,100261.06
2022-10-04T22:55:29.071Z,100261.84
2022-10-04T22:57:55.736Z,100259.31
2022-10-04T23:07:40.695Z,100250.84
2022-10-04T23:10:53.364Z,100263.81
2022-10-04T23:13:24.816Z,100262.81
2022-10-04T23:16:10.310Z,100254.97
2022-10-04T23:18:59.672Z,100265.13
2022-10-04T23:21:55.846Z,100257.50
2022-10-04T23:24:47.013Z,100264.16
2022-10-04T23:27:20.260Z,100260.53
